Time;durP1;ratioP1;P1;durP2;ratioP2;P2;SDS_P1;SDS_P2;PMS_P1;PMS_P2;Temp;Humidity;BMP_temperature;BMP_pressure;BME280_temperature;BME280_humidity;BME280_pressure;Samples;Min_cycle;Max_cycle;Signal;HPM_P1;HPM_P2
2021/12/31 00:01:05;;;;;;;13.52;4.07;;;11.00;99.90;;;;;;5033700;28;20517;-85
2021/12/31 00:03:31;;;;;;;7.38;3.63;;;11.00;99.90;;;;;;5051003;28;20033;-83
2021/12/31 00:05:56;;;;;;;8.65;3.60;;;11.00;99.90;;;;;;5026326;28;20116;-84
2021/12/31 00:08:22;;;;;;;12.52;3.83;;;11.00;99.90;;;;;;5015416;28;20040;-84
2021/12/31 00:10:48;;;;;;;11.63;4.05;;;11.00;99.90;;;;;;5024644;28;20124;-85
2021/12/31 00:13:13;;;;;;;9.38;3.78;;;11.00;99.90;;;;;;5043988;28;20484;-84
2021/12/31 00:15:39;;;;;;;9.20;4.47;;;11.00;99.90;;;;;;5040885;28;20040;-85
2021/12/31 00:18:06;;;;;;;13.32;3.83;;;11.00;99.90;;;;;;5071138;28;20587;-83
2021/12/31 00:20:32;;;;;;;11.82;3.42;;;11.10;99.90;;;;;;5028113;28;20020;-84
2021/12/31 00:23:05;;;;;;;19.83;4.78;;;11.10;99.90;;;;;;5026627;28;20029;-86
2021/12/31 00:25:33;;;;;;;13.13;3.35;;;11.10;99.90;;;;;;5059570;28;20039;-85
2021/12/31 00:28:00;;;;;;;10.25;3.45;;;11.00;99.90;;;;;;5051676;28;20048;-85
2021/12/31 00:30:26;;;;;;;14.63;4.00;;;11.10;99.90;;;;;;5060981;28;20505;-85
2021/12/31 00:32:52;;;;;;;12.20;3.20;;;11.10;99.90;;;;;;5052104;28;20052;-83
2021/12/31 00:35:18;;;;;;;11.38;3.35;;;11.00;99.90;;;;;;5036925;28;20029;-83
2021/12/31 00:37:47;;;;;;;11.55;3.85;;;11.00;99.90;;;;;;5045536;28;20044;-84
2021/12/31 00:40:17;;;;;;;15.60;3.70;;;11.00;99.90;;;;;;5061019;28;20051;-85
2021/12/31 00:42:49;;;;;;;7.97;3.05;;;11.00;99.90;;;;;;5043149;28;20025;-85
2021/12/31 00:45:17;;;;;;;6.38;3.63;;;11.00;99.90;;;;;;5024331;28;20456;-83
2021/12/31 00:47:44;;;;;;;9.07;3.20;;;11.00;99.90;;;;;;5051708;28;20468;-84
2021/12/31 00:50:11;;;;;;;9.60;3.38;;;11.00;99.90;;;;;;5078154;28;20032;-85
2021/12/31 00:52:37;;;;;;;5.25;3.67;;;11.00;99.90;;;;;;5056871;28;20032;-83
2021/12/31 00:55:08;;;;;;;7.47;3.53;;;11.00;99.90;;;;;;5063617;28;20031;-86
2021/12/31 00:57:34;;;;;;;7.80;3.50;;;11.00;99.90;;;;;;5057442;28;20025;-85
2021/12/31 01:00:00;;;;;;;9.50;3.65;;;11.00;99.90;;;;;;5047594;28;20064;-85
2021/12/31 01:02:28;;;;;;;12.63;3.92;;;11.00;99.90;;;;;;5056574;28;20320;-85
2021/12/31 01:04:54;;;;;;;7.38;3.53;;;11.00;99.90;;;;;;5083964;28;20028;-85
2021/12/31 01:07:20;;;;;;;7.55;4.13;;;11.00;99.90;;;;;;5044275;28;20029;-84
2021/12/31 01:09:46;;;;;;;11.45;4.05;;;10.90;99.90;;;;;;5000462;28;20406;-84
2021/12/31 01:12:13;;;;;;;13.63;4.18;;;10.90;99.90;;;;;;4999940;28;20032;-84
2021/12/31 01:14:57;;;;;;;10.65;3.80;;;10.90;99.90;;;;;;5053170;28;20100;-84
2021/12/31 01:17:52;;;;;;;12.77;3.58;;;11.00;99.90;;;;;;5064901;28;20028;-84
2021/12/31 01:20:17;;;;;;;8.10;3.25;;;10.90;99.90;;;;;;5070033;28;20527;-84
2021/12/31 01:22:44;;;;;;;11.10;3.50;;;10.90;99.90;;;;;;5037043;28;20024;-84
2021/12/31 01:25:10;;;;;;;8.20;3.85;;;10.90;99.90;;;;;;5070430;28;20032;-83
2021/12/31 01:27:38;;;;;;;6.63;2.95;;;10.90;99.90;;;;;;5039237;28;20308;-84
2021/12/31 01:30:07;;;;;;;10.55;3.85;;;10.90;99.90;;;;;;5061011;28;20077;-84
2021/12/31 01:32:33;;;;;;;11.77;3.72;;;10.90;99.90;;;;;;5052967;28;20029;-84
2021/12/31 01:35:03;;;;;;;7.60;4.03;;;10.90;99.90;;;;;;5066676;28;20037;-86
2021/12/31 01:37:28;;;;;;;9.70;4.15;;;10.90;99.90;;;;;;5060572;28;20078;-83
2021/12/31 01:39:54;;;;;;;12.35;4.80;;;10.90;99.90;;;;;;5016418;28;20033;-85
2021/12/31 01:42:27;;;;;;;8.82;3.67;;;10.90;99.90;;;;;;5043399;28;20064;-83
2021/12/31 01:45:02;;;;;;;9.48;4.32;;;10.80;99.90;;;;;;5038443;28;20026;-82
2021/12/31 01:47:46;;;;;;;11.05;3.90;;;10.80;99.90;;;;;;5041262;28;20017;-83
2021/12/31 01:50:15;;;;;;;9.45;3.88;;;10.80;99.90;;;;;;5062382;28;20029;-84
2021/12/31 01:52:41;;;;;;;11.02;4.45;;;10.90;99.90;;;;;;5000497;28;20086;-84
2021/12/31 01:55:10;;;;;;;7.32;3.78;;;10.80;99.90;;;;;;4999056;28;20029;-84
2021/12/31 01:57:39;;;;;;;10.40;3.43;;;10.80;99.90;;;;;;5034153;28;20043;-84
2021/12/31 02:00:14;;;;;;;11.93;3.75;;;10.80;99.90;;;;;;5022871;28;20310;-84
2021/12/31 02:02:46;;;;;;;7.70;3.55;;;10.80;99.90;;;;;;5018708;28;20123;-84
2021/12/31 02:05:13;;;;;;;8.23;3.45;;;10.80;99.90;;;;;;5028747;28;20064;-84
2021/12/31 02:07:40;;;;;;;9.50;4.03;;;10.80;99.90;;;;;;5031656;28;20029;-83
2021/12/31 02:10:08;;;;;;;9.38;3.65;;;10.80;99.90;;;;;;5026107;28;20075;-83
2021/12/31 02:12:34;;;;;;;6.30;3.70;;;10.80;99.90;;;;;;5014548;28;20033;-83
2021/12/31 02:15:03;;;;;;;10.70;3.40;;;10.80;99.90;;;;;;5027564;28;20131;-83
2021/12/31 02:17:28;;;;;;;6.32;3.17;;;10.70;99.90;;;;;;5015591;28;20041;-84
2021/12/31 02:20:06;;;;;;;9.02;3.78;;;10.70;99.90;;;;;;4999256;28;20082;-84
2021/12/31 02:22:50;;;;;;;6.25;3.15;;;10.70;99.90;;;;;;5034036;28;20115;-83
2021/12/31 02:25:20;;;;;;;9.02;3.83;;;10.70;99.90;;;;;;5001457;28;20029;-83
2021/12/31 02:27:45;;;;;;;6.50;3.25;;;10.70;99.90;;;;;;5032458;28;20032;-84
2021/12/31 02:30:11;;;;;;;12.60;3.58;;;10.70;99.90;;;;;;5032885;28;20276;-84
2021/12/31 02:32:40;;;;;;;11.73;3.20;;;10.70;99.90;;;;;;5049344;28;20041;-84
2021/12/31 02:35:08;;;;;;;6.60;3.20;;;10.70;99.90;;;;;;5031437;28;20025;-84
2021/12/31 02:37:35;;;;;;;5.35;3.45;;;10.70;99.90;;;;;;5031112;28;20029;-84
2021/12/31 02:40:07;;;;;;;8.40;3.42;;;10.70;99.90;;;;;;5014027;28;20033;-83
2021/12/31 02:42:33;;;;;;;8.98;2.63;;;10.70;99.90;;;;;;5016429;28;20025;-84
2021/12/31 02:44:59;;;;;;;9.40;3.10;;;10.70;99.90;;;;;;5020117;28;20033;-84
2021/12/31 02:47:25;;;;;;;8.35;3.38;;;10.70;99.90;;;;;;5018668;28;20033;-84
2021/12/31 02:49:50;;;;;;;10.80;2.60;;;10.70;99.90;;;;;;5018255;28;20030;-83
2021/12/31 02:52:20;;;;;;;5.38;2.83;;;10.70;99.90;;;;;;5035723;28;20047;-84
2021/12/31 02:54:50;;;;;;;5.22;2.90;;;10.70;99.90;;;;;;5036308;28;20033;-83
2021/12/31 02:57:18;;;;;;;5.80;2.50;;;10.60;99.90;;;;;;5035868;28;20112;-84
2021/12/31 02:59:45;;;;;;;6.45;3.33;;;10.60;99.90;;;;;;5020542;28;20041;-84
2021/12/31 03:02:15;;;;;;;5.68;2.92;;;10.60;99.90;;;;;;5018588;28;20538;-83
2021/12/31 03:04:42;;;;;;;6.93;2.70;;;10.60;99.90;;;;;;5052370;28;20036;-84
2021/12/31 03:07:12;;;;;;;3.88;2.63;;;10.60;99.90;;;;;;5044394;28;20029;-84
2021/12/31 03:09:43;;;;;;;4.78;3.22;;;10.60;99.90;;;;;;5038970;28;20476;-83
2021/12/31 03:12:10;;;;;;;4.75;2.85;;;10.60;99.90;;;;;;5060007;28;20037;-83
2021/12/31 03:14:39;;;;;;;6.18;2.88;;;10.60;99.90;;;;;;5019372;28;20083;-83
2021/12/31 03:17:05;;;;;;;4.50;2.75;;;10.60;99.90;;;;;;5034213;28;20033;-83
2021/12/31 03:19:33;;;;;;;4.78;3.03;;;10.60;99.90;;;;;;5053526;28;20447;-84
2021/12/31 03:21:59;;;;;;;3.33;2.30;;;10.60;99.90;;;;;;5024508;28;20036;-84
2021/12/31 03:24:24;;;;;;;10.82;2.83;;;10.60;99.90;;;;;;5016334;28;20473;-84
2021/12/31 03:26:50;;;;;;;7.32;2.65;;;10.60;99.90;;;;;;5026600;28;20033;-84
2021/12/31 03:29:16;;;;;;;8.90;2.72;;;10.60;99.90;;;;;;5011213;28;20041;-84
2021/12/31 03:31:42;;;;;;;3.58;2.35;;;10.60;99.90;;;;;;5031704;28;20035;-84
2021/12/31 03:34:10;;;;;;;4.45;2.42;;;10.60;99.90;;;;;;5023256;28;20416;-84
2021/12/31 03:36:37;;;;;;;4.68;1.95;;;10.60;99.90;;;;;;5034819;28;20024;-83
2021/12/31 03:39:03;;;;;;;5.20;2.10;;;10.60;99.90;;;;;;5032865;28;20024;-83
2021/12/31 03:41:30;;;;;;;6.45;2.35;;;10.60;99.90;;;;;;5035600;28;20489;-84
2021/12/31 03:43:56;;;;;;;5.43;2.28;;;10.60;99.90;;;;;;5045071;28;20374;-84
2021/12/31 03:46:22;;;;;;;5.68;2.35;;;10.50;99.90;;;;;;5033045;28;20091;-84
2021/12/31 03:48:47;;;;;;;9.52;2.53;;;10.60;99.90;;;;;;5052857;28;20033;-84
2021/12/31 03:51:13;;;;;;;6.15;2.47;;;10.60;99.90;;;;;;5045574;28;20025;-84
2021/12/31 03:53:39;;;;;;;4.43;2.42;;;10.60;99.90;;;;;;5037949;28;20048;-83
2021/12/31 03:56:12;;;;;;;10.70;2.85;;;10.60;99.90;;;;;;5015432;28;20044;-84
2021/12/31 03:58:37;;;;;;;5.20;2.42;;;10.60;99.90;;;;;;5048267;28;20116;-84
2021/12/31 04:01:06;;;;;;;7.25;3.03;;;10.50;99.90;;;;;;5023267;28;20180;-83
2021/12/31 04:03:32;;;;;;;5.00;3.25;;;10.60;99.90;;;;;;5035959;28;20117;-84
2021/12/31 04:05:58;;;;;;;6.78;3.40;;;10.60;99.90;;;;;;5033443;28;20104;-84
2021/12/31 04:08:23;;;;;;;5.28;2.72;;;10.50;99.90;;;;;;5034915;28;20033;-85
2021/12/31 04:10:52;;;;;;;7.13;2.80;;;10.50;99.90;;;;;;5017798;28;20037;-84
2021/12/31 04:13:21;;;;;;;6.45;2.90;;;10.60;99.90;;;;;;5022673;28;20242;-83
2021/12/31 04:15:47;;;;;;;5.68;2.85;;;10.60;99.90;;;;;;5018821;28;20528;-83
2021/12/31 04:18:13;;;;;;;6.95;3.35;;;10.60;99.90;;;;;;5001818;28;20086;-84
2021/12/31 04:20:44;;;;;;;6.97;3.20;;;10.60;99.90;;;;;;5008617;28;20044;-83
2021/12/31 04:23:27;;;;;;;10.80;3.45;;;10.60;99.90;;;;;;5035722;28;20123;-84
2021/12/31 04:25:54;;;;;;;5.50;2.63;;;10.50;99.90;;;;;;5052055;28;20397;-84
2021/12/31 04:28:19;;;;;;;8.80;3.25;;;10.60;99.90;;;;;;5025413;28;20120;-84
2021/12/31 04:30:45;;;;;;;5.25;2.40;;;10.50;99.90;;;;;;5021135;28;20569;-84
2021/12/31 04:33:13;;;;;;;6.85;2.33;;;10.50;99.90;;;;;;5026887;28;20041;-84
2021/12/31 04:35:39;;;;;;;5.03;2.90;;;10.50;99.90;;;;;;5039617;28;20025;-85
2021/12/31 04:38:05;;;;;;;9.32;2.38;;;10.40;99.90;;;;;;5072792;28;20057;-84
2021/12/31 04:40:31;;;;;;;11.95;2.45;;;10.40;99.90;;;;;;5011250;28;20029;-85
2021/12/31 04:42:56;;;;;;;4.88;2.38;;;10.40;99.90;;;;;;5027429;28;20028;-84
2021/12/31 04:45:24;;;;;;;5.15;2.03;;;10.30;99.90;;;;;;5019255;28;20045;-84
2021/12/31 04:47:51;;;;;;;7.25;2.30;;;10.30;99.90;;;;;;5017758;28;20029;-84
2021/12/31 04:50:16;;;;;;;4.60;2.67;;;10.20;99.90;;;;;;5033752;28;20033;-84
2021/12/31 04:52:49;;;;;;;5.63;2.33;;;10.20;99.90;;;;;;5033506;28;20618;-84
2021/12/31 04:55:14;;;;;;;7.30;2.40;;;10.10;99.90;;;;;;5024801;28;20025;-84
2021/12/31 04:57:42;;;;;;;6.13;2.03;;;10.00;99.90;;;;;;5032959;28;20029;-84
2021/12/31 05:00:09;;;;;;;3.85;2.15;;;10.00;99.90;;;;;;5033565;28;20579;-84
2021/12/31 05:02:35;;;;;;;7.28;2.38;;;10.00;99.90;;;;;;5015369;28;20119;-85
2021/12/31 05:05:01;;;;;;;4.70;2.28;;;9.90;99.90;;;;;;5017761;28;20025;-83
2021/12/31 05:07:28;;;;;;;4.05;2.10;;;9.90;99.90;;;;;;5034723;28;20033;-85
2021/12/31 05:09:54;;;;;;;3.47;2.42;;;9.80;99.90;;;;;;5002189;28;20036;-84
2021/12/31 05:12:25;;;;;;;9.75;2.25;;;9.80;99.90;;;;;;5038122;28;20496;-83
2021/12/31 05:14:51;;;;;;;6.10;2.55;;;9.80;99.90;;;;;;5038345;28;20029;-85
2021/12/31 05:17:17;;;;;;;5.65;2.50;;;9.70;99.90;;;;;;5018718;28;20024;-84
2021/12/31 05:19:44;;;;;;;10.95;2.83;;;9.60;99.90;;;;;;5002469;28;20079;-85
2021/12/31 05:22:11;;;;;;;5.00;2.47;;;9.60;99.90;;;;;;5002351;28;20021;-84
2021/12/31 05:24:38;;;;;;;4.47;2.13;;;9.60;99.90;;;;;;5024182;28;20079;-84
2021/12/31 05:27:07;;;;;;;5.90;2.95;;;9.60;99.90;;;;;;5035147;28;20029;-83
2021/12/31 05:29:34;;;;;;;7.97;2.85;;;9.50;99.90;;;;;;5052586;28;20045;-83
2021/12/31 05:32:00;;;;;;;9.70;2.97;;;9.50;99.90;;;;;;5018731;28;20393;-84
2021/12/31 05:34:26;;;;;;;12.63;2.92;;;9.50;99.90;;;;;;5036239;28;20036;-83
2021/12/31 05:36:51;;;;;;;6.40;2.92;;;9.40;99.90;;;;;;5015243;28;20070;-83
2021/12/31 05:39:17;;;;;;;9.00;2.80;;;9.40;99.90;;;;;;5029514;28;20599;-84
2021/12/31 05:41:43;;;;;;;5.47;2.80;;;9.40;99.90;;;;;;5039172;28;20116;-85
2021/12/31 05:44:08;;;;;;;7.15;3.25;;;9.30;99.90;;;;;;5061239;28;20063;-85
2021/12/31 05:46:34;;;;;;;7.53;2.60;;;9.30;99.90;;;;;;5024936;28;20079;-84
2021/12/31 05:49:00;;;;;;;12.77;2.45;;;9.30;99.90;;;;;;5053552;28;20043;-84
2021/12/31 05:51:27;;;;;;;6.00;2.83;;;9.20;99.90;;;;;;5036894;28;20615;-85
2021/12/31 05:53:53;;;;;;;5.55;2.78;;;9.20;99.90;;;;;;5020053;28;20552;-84
2021/12/31 05:56:19;;;;;;;8.38;2.60;;;9.20;99.90;;;;;;5034661;28;20041;-85
2021/12/31 05:58:47;;;;;;;7.97;2.75;;;9.10;99.90;;;;;;5039248;28;20098;-84
2021/12/31 06:01:13;;;;;;;9.70;2.72;;;9.10;99.90;;;;;;5045727;28;20017;-85
2021/12/31 06:03:38;;;;;;;5.43;2.53;;;9.10;99.90;;;;;;5069627;28;20029;-85
2021/12/31 06:06:04;;;;;;;7.05;2.45;;;9.00;99.90;;;;;;5027724;28;20037;-84
2021/12/31 06:08:30;;;;;;;7.20;3.40;;;9.00;99.90;;;;;;5038211;28;20032;-84
2021/12/31 06:10:56;;;;;;;7.80;2.85;;;8.90;99.90;;;;;;5036105;28;20036;-84
2021/12/31 06:13:23;;;;;;;6.47;2.72;;;8.90;99.90;;;;;;5054039;28;20126;-84
2021/12/31 06:15:55;;;;;;;13.18;2.65;;;8.80;99.90;;;;;;5047217;28;20115;-85
2021/12/31 06:18:21;;;;;;;9.32;2.50;;;8.80;99.90;;;;;;5017835;28;20038;-85
2021/12/31 06:20:46;;;;;;;8.20;2.83;;;8.70;99.90;;;;;;5040798;28;20512;-85
2021/12/31 06:23:12;;;;;;;11.73;3.97;;;8.70;99.90;;;;;;5031330;28;20063;-84
2021/12/31 06:25:40;;;;;;;6.43;3.15;;;8.70;99.90;;;;;;5035936;28;20056;-85
2021/12/31 06:28:09;;;;;;;4.13;2.88;;;8.70;99.90;;;;;;5030864;28;20363;-84
2021/12/31 06:30:36;;;;;;;7.45;3.05;;;8.70;99.90;;;;;;5019862;28;20524;-85
2021/12/31 06:33:05;;;;;;;5.93;3.17;;;8.70;99.90;;;;;;5057237;28;20120;-85
2021/12/31 06:35:34;;;;;;;12.30;2.90;;;8.70;99.90;;;;;;5016428;28;20032;-85
2021/12/31 06:38:04;;;;;;;6.68;3.30;;;8.60;99.90;;;;;;5043164;28;20350;-83
2021/12/31 06:40:31;;;;;;;7.97;2.70;;;8.60;99.90;;;;;;5055851;28;20383;-84
2021/12/31 06:42:57;;;;;;;7.60;3.33;;;8.60;99.90;;;;;;5069962;28;20096;-85
2021/12/31 06:45:22;;;;;;;13.02;3.25;;;8.50;99.90;;;;;;5044324;28;20109;-83
2021/12/31 06:47:48;;;;;;;6.15;3.13;;;8.60;99.90;;;;;;5028312;28;20028;-83
2021/12/31 06:50:14;;;;;;;9.43;3.67;;;8.50;99.90;;;;;;5032270;28;20029;-83
2021/12/31 06:52:40;;;;;;;11.73;3.33;;;8.50;99.90;;;;;;5031723;28;20048;-83
2021/12/31 06:55:07;;;;;;;5.25;3.20;;;8.40;99.90;;;;;;5028677;28;20402;-84
2021/12/31 06:57:34;;;;;;;6.82;3.25;;;8.40;99.90;;;;;;5025141;28;20429;-83
2021/12/31 07:00:00;;;;;;;9.43;3.00;;;8.40;99.90;;;;;;5063494;28;20449;-83
2021/12/31 07:02:25;;;;;;;13.35;3.58;;;8.40;99.90;;;;;;5020893;28;20032;-83
2021/12/31 07:04:51;;;;;;;9.90;3.10;;;8.40;99.90;;;;;;5031988;28;20060;-83
2021/12/31 07:07:17;;;;;;;4.70;2.92;;;8.50;99.90;;;;;;5038645;28;20060;-84
2021/12/31 07:09:42;;;;;;;4.68;2.88;;;8.40;99.90;;;;;;5033749;28;20036;-84
2021/12/31 07:12:11;;;;;;;7.38;3.50;;;8.40;99.90;;;;;;5010443;28;20041;-83
2021/12/31 07:14:36;;;;;;;5.88;3.38;;;8.40;99.90;;;;;;5031208;28;20144;-84
2021/12/31 07:17:05;;;;;;;9.93;3.20;;;8.50;99.90;;;;;;5035753;28;20159;-83
2021/12/31 07:19:30;;;;;;;7.70;2.92;;;8.40;99.90;;;;;;5042239;28;20520;-85
2021/12/31 07:21:56;;;;;;;8.70;2.92;;;8.40;99.90;;;;;;5042831;28;20056;-84
2021/12/31 07:24:22;;;;;;;6.55;3.10;;;8.40;99.90;;;;;;5049411;28;20025;-83
2021/12/31 07:26:48;;;;;;;7.35;2.90;;;8.40;99.90;;;;;;5047452;28;20071;-84
2021/12/31 07:29:14;;;;;;;7.25;2.85;;;8.40;99.90;;;;;;5042293;28;20060;-83
2021/12/31 07:31:42;;;;;;;5.57;3.17;;;8.40;99.90;;;;;;5018868;28;20077;-84
2021/12/31 07:34:08;;;;;;;4.70;2.75;;;8.40;99.90;;;;;;5036592;28;20021;-85
2021/12/31 07:36:34;;;;;;;10.35;3.28;;;8.40;99.90;;;;;;5026236;28;20040;-84
2021/12/31 07:39:05;;;;;;;4.82;2.65;;;8.40;99.90;;;;;;5020699;28;20044;-84
2021/12/31 07:41:30;;;;;;;15.52;3.60;;;8.40;99.90;;;;;;5020464;28;20408;-85
2021/12/31 07:43:56;;;;;;;8.40;3.13;;;8.30;99.90;;;;;;5009185;28;20024;-84
2021/12/31 07:46:22;;;;;;;7.97;3.10;;;8.30;99.90;;;;;;5041536;28;20052;-84
2021/12/31 07:51:16;;;;;;;8.38;3.05;;;8.40;99.90;;;;;;5054079;28;20044;-81
2021/12/31 07:53:42;;;;;;;6.72;3.10;;;8.40;99.90;;;;;;4997390;28;20032;-80
2021/12/31 07:56:07;;;;;;;6.82;3.20;;;8.40;99.90;;;;;;5015927;28;20087;-80
2021/12/31 07:58:33;;;;;;;7.47;2.92;;;8.40;99.90;;;;;;5017480;28;20034;-80
2021/12/31 08:00:59;;;;;;;6.05;3.10;;;8.40;99.90;;;;;;5019263;28;20056;-83
2021/12/31 08:03:25;;;;;;;7.25;2.97;;;8.50;99.90;;;;;;4986057;28;20041;-80
2021/12/31 08:05:51;;;;;;;7.82;2.70;;;8.50;99.90;;;;;;5038907;28;20036;-80
2021/12/31 08:08:20;;;;;;;5.50;2.90;;;8.50;99.90;;;;;;5029460;28;20037;-81
2021/12/31 08:10:46;;;;;;;9.18;2.88;;;8.50;99.90;;;;;;5043774;28;20048;-82
2021/12/31 08:13:12;;;;;;;6.75;2.97;;;8.50;99.90;;;;;;5017102;28;20484;-82
2021/12/31 08:15:38;;;;;;;5.95;2.97;;;8.50;99.90;;;;;;5001479;28;20029;-82
2021/12/31 08:18:04;;;;;;;5.72;3.10;;;8.50;99.90;;;;;;5031219;28;20020;-82
2021/12/31 08:20:30;;;;;;;7.68;2.80;;;8.50;99.90;;;;;;5034099;28;20036;-81
2021/12/31 08:23:04;;;;;;;5.75;2.75;;;8.50;99.90;;;;;;5032029;28;20040;-81
2021/12/31 08:25:30;;;;;;;6.40;2.60;;;8.60;99.90;;;;;;5012856;28;20037;-80
2021/12/31 08:27:55;;;;;;;7.13;2.58;;;8.60;99.90;;;;;;5018089;28;20036;-82
2021/12/31 08:30:21;;;;;;;3.95;2.60;;;8.60;99.90;;;;;;5002545;28;20034;-81
2021/12/31 08:32:47;;;;;;;10.57;2.78;;;8.60;99.90;;;;;;5004574;28;20028;-83
2021/12/31 08:35:12;;;;;;;7.13;2.55;;;8.60;99.90;;;;;;5002378;28;20103;-82
2021/12/31 08:37:38;;;;;;;5.05;2.63;;;8.60;99.90;;;;;;4991196;28;20022;-81
2021/12/31 08:40:07;;;;;;;6.18;2.67;;;8.60;99.90;;;;;;5005838;28;20638;-81
2021/12/31 08:42:33;;;;;;;6.07;2.17;;;8.70;99.90;;;;;;5020414;28;20037;-81
2021/12/31 08:45:00;;;;;;;4.60;2.22;;;8.70;99.90;;;;;;5050493;28;20376;-82
2021/12/31 08:47:25;;;;;;;3.83;2.53;;;8.70;99.90;;;;;;5021638;28;20175;-83
2021/12/31 08:49:51;;;;;;;4.65;2.50;;;8.70;99.90;;;;;;5014205;28;20123;-79
2021/12/31 08:52:16;;;;;;;7.43;3.10;;;8.70;99.90;;;;;;5030688;28;20037;-78
2021/12/31 08:54:42;;;;;;;5.18;2.30;;;8.80;99.90;;;;;;5027073;28;20025;-79
2021/12/31 08:57:12;;;;;;;4.00;2.28;;;8.80;99.90;;;;;;5024694;28;20056;-79
2021/12/31 08:59:40;;;;;;;4.88;2.95;;;8.80;99.90;;;;;;5032505;28;20056;-78
2021/12/31 09:02:06;;;;;;;5.18;3.03;;;8.80;99.90;;;;;;5045406;28;20052;-79
2021/12/31 09:04:33;;;;;;;6.55;3.25;;;8.80;99.90;;;;;;5040394;28;20024;-80
2021/12/31 09:07:01;;;;;;;13.15;2.70;;;8.90;99.90;;;;;;5042432;28;20021;-81
2021/12/31 09:09:27;;;;;;;5.90;2.83;;;8.90;99.90;;;;;;5041278;28;20044;-79
2021/12/31 09:11:54;;;;;;;8.63;3.15;;;8.90;99.90;;;;;;5024166;28;20033;-80
2021/12/31 09:14:20;;;;;;;3.58;2.40;;;8.90;99.90;;;;;;5007797;28;20040;-80
2021/12/31 09:16:47;;;;;;;4.15;2.28;;;9.00;99.90;;;;;;5045960;28;20037;-81
2021/12/31 09:19:13;;;;;;;3.30;2.20;;;9.00;99.90;;;;;;5002683;28;20088;-80
2021/12/31 09:21:40;;;;;;;7.30;2.47;;;9.00;99.90;;;;;;5024402;28;20623;-81
2021/12/31 09:24:06;;;;;;;8.70;2.60;;;9.10;99.90;;;;;;5048000;28;20513;-80
2021/12/31 09:26:32;;;;;;;12.00;3.83;;;9.10;99.90;;;;;;5017103;28;20040;-80
2021/12/31 09:28:57;;;;;;;16.17;5.28;;;9.20;99.90;;;;;;5034533;28;20029;-80
2021/12/31 09:31:23;;;;;;;13.55;4.53;;;9.20;99.90;;;;;;5027393;28;20028;-81
2021/12/31 09:33:49;;;;;;;9.63;4.10;;;9.30;99.90;;;;;;5005304;28;20113;-81
2021/12/31 09:36:15;;;;;;;7.82;3.05;;;9.30;99.90;;;;;;5002828;28;20440;-81
2021/12/31 09:38:41;;;;;;;6.68;2.90;;;9.40;99.90;;;;;;5036588;28;20487;-81
2021/12/31 09:41:09;;;;;;;13.93;3.33;;;9.40;99.90;;;;;;5034202;28;20081;-81
2021/12/31 09:43:50;;;;;;;5.53;2.58;;;9.50;99.90;;;;;;5018748;28;20033;-80
2021/12/31 09:46:19;;;;;;;4.68;2.20;;;9.60;99.90;;;;;;5036238;28;20036;-81
2021/12/31 09:48:45;;;;;;;4.07;2.08;;;9.70;99.90;;;;;;4989124;28;20033;-81
2021/12/31 09:51:11;;;;;;;3.05;2.08;;;9.80;99.90;;;;;;5052855;28;20039;-80
2021/12/31 09:53:36;;;;;;;3.15;1.73;;;9.90;99.90;;;;;;5028988;28;20033;-80
2021/12/31 09:56:02;;;;;;;2.42;1.60;;;10.00;99.90;;;;;;5013877;28;20111;-80
2021/12/31 09:58:28;;;;;;;5.28;2.13;;;10.10;99.90;;;;;;5018881;28;20036;-81
2021/12/31 10:01:01;;;;;;;7.25;1.73;;;10.20;99.90;;;;;;5031431;28;20025;-82
2021/12/31 10:03:35;;;;;;;4.15;1.58;;;10.40;99.90;;;;;;5045967;28;20082;-81
2021/12/31 10:06:04;;;;;;;4.45;1.98;;;10.50;99.90;;;;;;5014569;28;20037;-81
2021/12/31 10:08:43;;;;;;;3.53;1.50;;;10.60;99.90;;;;;;5028283;28;20249;-80
2021/12/31 10:11:13;;;;;;;4.95;1.50;;;10.70;99.90;;;;;;5004097;28;20060;-81
2021/12/31 10:13:49;;;;;;;2.72;1.60;;;10.80;99.90;;;;;;5043967;28;20034;-79
2021/12/31 10:16:27;;;;;;;10.15;3.25;;;10.90;99.90;;;;;;5019172;28;20065;-80
2021/12/31 10:19:10;;;;;;;5.38;1.80;;;11.00;99.90;;;;;;5023818;28;20059;-80
2021/12/31 10:21:41;;;;;;;3.45;1.50;;;11.00;99.90;;;;;;5060280;28;20055;-79
2021/12/31 10:24:36;;;;;;;2.90;1.40;;;11.10;99.90;;;;;;5047597;28;20032;-80
2021/12/31 10:27:23;;;;;;;2.55;1.63;;;11.00;99.90;;;;;;5062425;28;20035;-80
2021/12/31 10:30:03;;;;;;;3.25;1.70;;;11.00;99.90;;;;;;5063510;28;20560;-79
2021/12/31 10:32:40;;;;;;;3.72;2.20;;;10.90;99.90;;;;;;5046342;28;20086;-79
2021/12/31 10:35:15;;;;;;;5.45;2.90;;;10.90;99.90;;;;;;5048064;28;20036;-80
2021/12/31 10:37:46;;;;;;;5.57;3.13;;;10.80;99.90;;;;;;5047517;28;20044;-80
2021/12/31 10:40:24;;;;;;;5.20;2.97;;;10.80;99.90;;;;;;5024108;28;20029;-79
2021/12/31 10:43:06;;;;;;;6.75;2.70;;;10.80;99.90;;;;;;5053768;28;20040;-79
2021/12/31 10:45:31;;;;;;;7.15;2.65;;;10.80;99.90;;;;;;5056894;28;20029;-79
2021/12/31 10:48:12;;;;;;;3.72;2.45;;;10.90;99.90;;;;;;5041130;28;20578;-79
2021/12/31 10:50:51;;;;;;;5.38;2.33;;;10.90;99.90;;;;;;5054292;28;20028;-79
2021/12/31 10:53:33;;;;;;;7.35;2.35;;;11.00;99.90;;;;;;5038840;28;20033;-78
2021/12/31 10:56:12;;;;;;;4.93;3.30;;;11.00;99.90;;;;;;5057428;28;20028;-79
2021/12/31 10:58:41;;;;;;;9.00;3.17;;;11.00;99.90;;;;;;5059620;28;20021;-80
2021/12/31 11:01:13;;;;;;;7.20;3.55;;;10.90;99.90;;;;;;5026707;28;20119;-80
2021/12/31 11:03:39;;;;;;;8.20;3.63;;;10.80;99.90;;;;;;5061085;28;20020;-80
2021/12/31 11:06:07;;;;;;;8.40;4.50;;;10.70;99.90;;;;;;5028960;28;20036;-79
2021/12/31 11:08:34;;;;;;;9.90;4.25;;;10.60;99.90;;;;;;5029271;28;20029;-80
2021/12/31 11:11:02;;;;;;;6.80;4.25;;;10.50;99.90;;;;;;5061492;28;20032;-79
2021/12/31 11:13:30;;;;;;;9.55;4.68;;;10.50;99.90;;;;;;5045139;28;20052;-79
2021/12/31 11:15:58;;;;;;;6.25;4.47;;;10.40;99.90;;;;;;5044525;28;20485;-78
2021/12/31 11:18:25;;;;;;;6.28;4.10;;;10.50;99.90;;;;;;5061265;28;20421;-79
2021/12/31 11:20:53;;;;;;;6.10;3.92;;;10.50;99.90;;;;;;5048395;28;20056;-80
2021/12/31 11:23:31;;;;;;;9.75;4.78;;;10.60;99.90;;;;;;5016938;28;20056;-79
2021/12/31 11:26:09;;;;;;;7.32;4.43;;;10.70;99.90;;;;;;5021357;28;20068;-79
2021/12/31 11:28:37;;;;;;;7.28;4.28;;;10.80;99.90;;;;;;5004926;28;20084;-79
2021/12/31 11:31:23;;;;;;;8.90;4.85;;;10.80;99.90;;;;;;5005265;28;20087;-80
2021/12/31 11:33:58;;;;;;;8.80;4.30;;;10.90;99.90;;;;;;5006254;28;20556;-80
2021/12/31 11:36:48;;;;;;;7.60;4.25;;;11.00;99.90;;;;;;5039061;28;20034;-80
2021/12/31 11:39:17;;;;;;;7.15;4.32;;;11.20;99.90;;;;;;5045994;28;20029;-77
2021/12/31 11:41:44;;;;;;;6.25;4.35;;;11.20;99.90;;;;;;5008963;28;20087;-78
2021/12/31 11:44:13;;;;;;;9.80;4.03;;;11.30;99.90;;;;;;5043366;28;20024;-81
2021/12/31 11:46:41;;;;;;;8.35;3.80;;;11.30;99.90;;;;;;5045849;28;20094;-81
2021/12/31 11:49:26;;;;;;;7.03;3.78;;;11.30;99.90;;;;;;5028627;28;20029;-80
2021/12/31 11:52:05;;;;;;;8.25;4.05;;;11.30;99.90;;;;;;5034664;28;20055;-79
2021/12/31 11:54:32;;;;;;;5.72;3.88;;;11.30;99.90;;;;;;5060607;28;20055;-78
2021/12/31 11:57:00;;;;;;;6.43;3.40;;;11.30;99.90;;;;;;5060266;28;20032;-79
2021/12/31 11:59:51;;;;;;;6.03;3.70;;;11.40;99.90;;;;;;5025151;28;20025;-79
2021/12/31 12:02:20;;;;;;;7.93;3.55;;;11.40;99.90;;;;;;5056766;28;20047;-79
2021/12/31 12:05:07;;;;;;;7.57;3.50;;;11.40;99.90;;;;;;5058840;28;20020;-79
2021/12/31 12:07:46;;;;;;;8.68;4.00;;;11.50;99.90;;;;;;5059876;28;20021;-80
2021/12/31 12:10:20;;;;;;;6.00;3.10;;;11.60;99.90;;;;;;5053367;28;20024;-79
2021/12/31 12:12:51;;;;;;;9.18;3.08;;;11.60;99.90;;;;;;5026363;28;20518;-79
2021/12/31 12:15:19;;;;;;;7.32;3.05;;;11.60;99.90;;;;;;5020813;28;20052;-79
2021/12/31 12:17:46;;;;;;;6.70;3.00;;;11.60;99.90;;;;;;5017524;28;20026;-80
2021/12/31 12:20:18;;;;;;;3.88;2.50;;;11.60;99.90;;;;;;5034295;28;20029;-80
2021/12/31 12:22:50;;;;;;;4.55;2.40;;;11.60;99.90;;;;;;5009226;28;20438;-80
2021/12/31 12:25:18;;;;;;;4.57;2.63;;;11.50;99.90;;;;;;5024605;28;20082;-78
2021/12/31 12:27:47;;;;;;;6.28;2.47;;;11.50;99.90;;;;;;5040851;28;20399;-79
2021/12/31 12:30:18;;;;;;;6.60;2.60;;;11.50;99.90;;;;;;5044262;28;20032;-79
2021/12/31 12:35:15;;;;;;;4.78;2.42;;;11.50;99.90;;;;;;5080609;28;20406;-79
2021/12/31 12:37:42;;;;;;;4.40;2.35;;;11.60;99.90;;;;;;5023289;28;20078;-79
2021/12/31 12:40:09;;;;;;;8.27;2.55;;;11.60;99.90;;;;;;5055960;28;20024;-78
2021/12/31 12:42:35;;;;;;;5.57;2.30;;;11.50;99.90;;;;;;5044035;28;20024;-80
2021/12/31 12:45:10;;;;;;;4.65;2.65;;;11.50;99.90;;;;;;5032542;28;20056;-80
2021/12/31 12:47:35;;;;;;;6.55;2.83;;;11.50;99.90;;;;;;5025343;28;20040;-78
2021/12/31 12:50:09;;;;;;;3.72;2.33;;;11.50;99.90;;;;;;5038407;28;20048;-79
2021/12/31 12:52:36;;;;;;;5.00;2.10;;;11.50;99.90;;;;;;5040066;28;20365;-81
2021/12/31 12:55:15;;;;;;;5.07;2.03;;;11.40;99.90;;;;;;5024485;28;20061;-81
2021/12/31 12:57:42;;;;;;;6.10;2.15;;;11.40;99.90;;;;;;5030700;28;20021;-82
2021/12/31 13:00:09;;;;;;;3.65;2.33;;;11.30;99.90;;;;;;5013721;28;20092;-81